Time;durP1;ratioP1;P1;durP2;ratioP2;P2;SDS_P1;SDS_P2;PMS_P1;PMS_P2;Temp;Humidity;BMP_temperature;BMP_pressure;BME280_temperature;BME280_humidity;BME280_pressure;Samples;Min_cycle;Max_cycle;Signal;HPM_P1;HPM_P2
2023/08/02 00:01:53;;;;;;;12.07;4.15;;;16.00;99.90;;;;;;4959342;28;20042;-87
2023/08/02 00:04:19;;;;;;;10.65;4.30;;;16.00;99.90;;;;;;4975678;28;20054;-87
2023/08/02 00:06:45;;;;;;;6.20;2.63;;;16.00;99.90;;;;;;4959066;28;20031;-87
2023/08/02 00:09:10;;;;;;;11.35;3.95;;;16.00;99.90;;;;;;4975478;28;20046;-86
2023/08/02 00:11:36;;;;;;;12.50;4.53;;;16.00;99.90;;;;;;4975047;28;20082;-86
2023/08/02 00:14:01;;;;;;;7.95;2.70;;;16.00;99.90;;;;;;4975326;28;20046;-87
2023/08/02 00:16:27;;;;;;;12.88;4.70;;;16.00;99.90;;;;;;4992471;28;20490;-86
2023/08/02 00:18:53;;;;;;;13.27;4.72;;;16.00;99.90;;;;;;4975005;28;20050;-86
2023/08/02 00:21:18;;;;;;;13.77;2.85;;;16.00;99.90;;;;;;4975412;28;20038;-86
2023/08/02 00:23:44;;;;;;;13.15;3.45;;;16.00;99.90;;;;;;4975415;28;20766;-86
2023/08/02 00:26:10;;;;;;;15.18;4.63;;;15.90;99.90;;;;;;4975284;28;20070;-86
2023/08/02 00:28:36;;;;;;;13.57;4.45;;;16.00;99.90;;;;;;4958647;28;20074;-86
2023/08/02 00:31:01;;;;;;;14.32;4.60;;;16.00;99.90;;;;;;4974929;28;20073;-85
2023/08/02 00:33:27;;;;;;;11.27;4.78;;;16.00;99.90;;;;;;4974936;28;20050;-86
2023/08/02 00:35:54;;;;;;;10.70;4.30;;;16.10;99.90;;;;;;4958563;28;20065;-86
2023/08/02 00:38:21;;;;;;;10.38;3.15;;;16.00;99.90;;;;;;4958767;28;20042;-86
2023/08/02 00:40:46;;;;;;;9.77;2.83;;;16.00;99.90;;;;;;4975126;28;20517;-86
2023/08/02 00:43:12;;;;;;;10.15;3.08;;;16.00;99.90;;;;;;4975105;28;20126;-86
2023/08/02 00:45:37;;;;;;;11.40;4.38;;;15.90;99.90;;;;;;4974958;28;20045;-86
2023/08/02 00:48:04;;;;;;;14.73;4.55;;;16.00;99.90;;;;;;4974340;28;20045;-86
2023/08/02 00:50:32;;;;;;;14.20;5.18;;;16.00;99.90;;;;;;4958736;28;20102;-86
2023/08/02 00:52:58;;;;;;;10.45;3.65;;;16.00;99.90;;;;;;4974750;28;20034;-86
2023/08/02 00:55:24;;;;;;;13.90;4.30;;;16.00;99.90;;;;;;4958841;28;20042;-86
2023/08/02 00:57:50;;;;;;;9.13;2.63;;;16.00;99.90;;;;;;4973847;28;20046;-86
2023/08/02 01:00:16;;;;;;;11.35;3.38;;;16.00;99.90;;;;;;4958487;28;20125;-86
2023/08/02 01:02:42;;;;;;;11.25;3.28;;;16.00;99.90;;;;;;4974769;28;20177;-85
2023/08/02 01:05:07;;;;;;;12.90;3.53;;;15.90;99.90;;;;;;4974541;28;20067;-86
2023/08/02 01:07:58;;;;;;;12.60;4.72;;;15.90;99.90;;;;;;4974572;28;20128;-86
2023/08/02 01:11:02;;;;;;;9.68;3.03;;;16.00;99.90;;;;;;4974748;28;20057;-86
2023/08/02 01:13:30;;;;;;;17.60;5.32;;;15.90;99.90;;;;;;4969271;28;20077;-86
2023/08/02 01:15:58;;;;;;;13.38;5.38;;;15.90;99.90;;;;;;4974287;28;20047;-87
2023/08/02 01:18:23;;;;;;;14.30;5.05;;;16.00;99.90;;;;;;4958177;28;20042;-86
2023/08/02 01:20:49;;;;;;;11.90;3.22;;;16.00;99.90;;;;;;4974723;28;20038;-86
2023/08/02 01:23:15;;;;;;;13.98;5.07;;;16.00;99.90;;;;;;4974240;28;20385;-86
2023/08/02 01:25:44;;;;;;;8.65;3.65;;;16.00;99.90;;;;;;4974280;28;20121;-86
2023/08/02 01:28:16;;;;;;;16.08;5.70;;;16.00;99.90;;;;;;4973901;28;20121;-85
2023/08/02 01:30:43;;;;;;;15.43;3.75;;;16.00;99.90;;;;;;4974235;28;20630;-86
2023/08/02 01:33:10;;;;;;;15.90;5.80;;;16.00;99.90;;;;;;4974500;28;20061;-86
2023/08/02 01:35:36;;;;;;;13.25;5.63;;;16.00;99.90;;;;;;4974113;28;20034;-86
2023/08/02 01:38:01;;;;;;;10.25;3.28;;;16.00;99.90;;;;;;4974214;28;20595;-86
2023/08/02 01:40:28;;;;;;;12.70;3.55;;;16.00;99.90;;;;;;4973803;28;20125;-86
2023/08/02 01:42:54;;;;;;;19.92;5.57;;;15.90;99.90;;;;;;4957584;28;20138;-86
2023/08/02 01:45:19;;;;;;;15.02;5.75;;;16.00;99.90;;;;;;4958038;28;20038;-86
2023/08/02 01:47:45;;;;;;;16.40;3.88;;;16.00;99.90;;;;;;4991013;28;20531;-87
2023/08/02 01:50:10;;;;;;;9.68;3.10;;;16.00;99.90;;;;;;4973398;28;20101;-87
2023/08/02 01:52:36;;;;;;;18.50;5.68;;;16.00;99.90;;;;;;4973214;28;20422;-86
2023/08/02 01:55:02;;;;;;;17.48;5.45;;;16.00;99.90;;;;;;4957300;28;20104;-86
2023/08/02 01:57:27;;;;;;;10.80;3.72;;;16.00;99.90;;;;;;4973510;28;20038;-86
2023/08/02 01:59:53;;;;;;;18.02;5.38;;;16.00;99.90;;;;;;4974478;28;20035;-86
2023/08/02 02:02:18;;;;;;;14.52;4.10;;;16.00;99.90;;;;;;4974331;28;20523;-86
2023/08/02 02:04:44;;;;;;;13.65;3.90;;;15.90;99.90;;;;;;4974060;28;20096;-86
2023/08/02 02:07:10;;;;;;;15.50;5.90;;;15.90;99.90;;;;;;4957820;28;20049;-86
2023/08/02 02:09:35;;;;;;;17.52;6.22;;;15.90;99.90;;;;;;4975681;28;20030;-86
2023/08/02 02:12:01;;;;;;;14.07;3.40;;;15.90;99.90;;;;;;4977016;28;20046;-86
2023/08/02 02:14:26;;;;;;;12.85;5.75;;;15.90;99.90;;;;;;4976778;28;20074;-86
2023/08/02 02:16:52;;;;;;;16.63;6.07;;;15.90;99.90;;;;;;4976574;28;20047;-86
2023/08/02 02:19:17;;;;;;;17.55;5.70;;;15.90;99.90;;;;;;4977547;28;20128;-86
2023/08/02 02:21:43;;;;;;;10.18;2.97;;;15.90;99.90;;;;;;4977555;28;20422;-86
2023/08/02 02:24:09;;;;;;;13.63;4.18;;;15.90;99.90;;;;;;4961382;28;20046;-85
2023/08/02 02:26:34;;;;;;;10.38;3.20;;;15.80;99.90;;;;;;4976806;28;20045;-86
2023/08/02 02:29:00;;;;;;;16.02;6.18;;;15.70;99.90;;;;;;4976818;28;20046;-86
2023/08/02 02:31:25;;;;;;;16.73;6.25;;;15.80;99.90;;;;;;4960495;28;20038;-85
2023/08/02 02:33:51;;;;;;;12.70;3.13;;;15.80;99.90;;;;;;4976811;28;20046;-87
2023/08/02 02:36:16;;;;;;;17.42;5.70;;;15.80;99.90;;;;;;4976407;28;20526;-87
2023/08/02 02:38:42;;;;;;;18.85;6.07;;;15.80;99.90;;;;;;4977133;28;20084;-87
2023/08/02 02:41:08;;;;;;;17.73;6.03;;;15.80;99.90;;;;;;4977215;28;20056;-87
2023/08/02 02:43:33;;;;;;;13.20;5.93;;;15.80;99.90;;;;;;4977610;28;20493;-86
2023/08/02 02:45:59;;;;;;;12.40;4.15;;;15.90;99.90;;;;;;4967013;28;20120;-86
2023/08/02 02:48:24;;;;;;;13.40;3.63;;;15.80;99.90;;;;;;4996077;28;20042;-86
2023/08/02 02:50:50;;;;;;;15.25;5.72;;;15.70;99.90;;;;;;4996309;28;20038;-86
2023/08/02 02:53:19;;;;;;;13.95;4.07;;;15.70;99.90;;;;;;4995949;28;20125;-87
2023/08/02 02:55:45;;;;;;;17.75;6.15;;;15.70;99.90;;;;;;4979913;28;20041;-87
2023/08/02 02:58:20;;;;;;;9.23;3.25;;;15.60;99.90;;;;;;4995773;28;20038;-87
2023/08/02 03:00:45;;;;;;;17.48;6.47;;;15.50;99.90;;;;;;4994617;28;20034;-87
2023/08/02 03:03:11;;;;;;;16.20;6.20;;;15.50;99.90;;;;;;4995071;28;20100;-87
2023/08/02 03:05:39;;;;;;;16.15;6.50;;;15.60;99.90;;;;;;4995030;28;20077;-87
2023/08/02 03:08:05;;;;;;;14.85;6.00;;;15.50;99.90;;;;;;4994670;28;20083;-87
2023/08/02 03:10:31;;;;;;;12.93;4.38;;;15.50;99.90;;;;;;4995144;28;20038;-86
2023/08/02 03:12:56;;;;;;;16.98;6.45;;;15.40;99.90;;;;;;4979111;28;20045;-86
2023/08/02 03:15:22;;;;;;;18.13;6.70;;;15.40;99.90;;;;;;4995178;28;20538;-86
2023/08/02 03:17:47;;;;;;;11.15;3.83;;;15.40;99.90;;;;;;4995637;28;20114;-85
2023/08/02 03:20:13;;;;;;;16.67;6.63;;;15.40;99.90;;;;;;5004853;28;20096;-86
2023/08/02 03:22:38;;;;;;;15.65;6.68;;;15.30;99.90;;;;;;4991562;28;20044;-86
2023/08/02 03:25:04;;;;;;;16.83;6.65;;;15.40;99.90;;;;;;4997840;28;20116;-86
2023/08/02 03:27:30;;;;;;;13.52;4.43;;;15.40;99.90;;;;;;4996134;28;20044;-85
2023/08/02 03:29:56;;;;;;;11.95;4.47;;;15.30;99.90;;;;;;4980345;28;20037;-85
2023/08/02 03:32:22;;;;;;;15.02;6.78;;;15.20;99.90;;;;;;4979467;28;20038;-86
2023/08/02 03:34:47;;;;;;;18.58;7.68;;;15.30;99.90;;;;;;4995253;28;20045;-86
2023/08/02 03:37:13;;;;;;;11.80;4.10;;;15.30;99.90;;;;;;4978433;28;20088;-86
2023/08/02 03:39:38;;;;;;;15.75;7.10;;;15.20;99.90;;;;;;4995496;28;20044;-86
2023/08/02 03:42:04;;;;;;;16.75;7.32;;;15.20;99.90;;;;;;4978528;28;20474;-86
2023/08/02 03:44:30;;;;;;;14.52;7.25;;;15.20;99.90;;;;;;4978567;28;20038;-86
2023/08/02 03:46:55;;;;;;;13.90;7.05;;;15.20;99.90;;;;;;4994748;28;20037;-86
2023/08/02 03:49:22;;;;;;;18.00;7.20;;;15.20;99.90;;;;;;4994780;28;20040;-86
2023/08/02 03:51:48;;;;;;;10.10;4.07;;;15.20;99.90;;;;;;4978705;28;20044;-86
2023/08/02 03:54:13;;;;;;;11.43;3.20;;;15.20;99.90;;;;;;4994990;28;20042;-86
2023/08/02 03:56:39;;;;;;;13.38;4.57;;;15.10;99.90;;;;;;4978019;28;20403;-86
2023/08/02 03:59:05;;;;;;;15.80;7.30;;;15.10;99.90;;;;;;4994896;28;20553;-86
2023/08/02 04:01:30;;;;;;;15.20;5.13;;;15.10;99.90;;;;;;4994462;28;20044;-86
2023/08/02 04:03:56;;;;;;;15.75;7.85;;;15.10;99.90;;;;;;4978214;28;20041;-86
2023/08/02 04:06:22;;;;;;;11.73;5.10;;;15.10;99.90;;;;;;4994911;28;20038;-87
2023/08/02 04:08:47;;;;;;;16.02;7.70;;;15.10;99.90;;;;;;4994738;28;20108;-86
2023/08/02 04:11:13;;;;;;;14.77;7.55;;;15.10;99.90;;;;;;4978334;28;20045;-86
2023/08/02 04:13:39;;;;;;;16.58;7.53;;;15.10;99.90;;;;;;4994179;28;20557;-86
2023/08/02 04:16:04;;;;;;;12.90;5.00;;;15.20;99.90;;;;;;4994030;28;20069;-86
2023/08/02 04:18:30;;;;;;;12.88;4.28;;;15.20;99.90;;;;;;4994038;28;20038;-86
2023/08/02 04:20:56;;;;;;;15.68;7.72;;;15.10;99.90;;;;;;4994400;28;20037;-86
2023/08/02 04:23:21;;;;;;;10.90;4.22;;;15.10;99.90;;;;;;4994741;28;20573;-86
2023/08/02 04:25:47;;;;;;;12.20;3.47;;;15.10;99.90;;;;;;4994503;28;20556;-86
2023/08/02 04:28:12;;;;;;;13.15;3.97;;;15.10;99.90;;;;;;4994149;28;20044;-86
2023/08/02 04:30:38;;;;;;;12.30;4.47;;;15.00;99.90;;;;;;4994086;28;20046;-86
2023/08/02 04:33:03;;;;;;;14.70;4.95;;;15.00;99.90;;;;;;4977682;28;20038;-86
2023/08/02 04:35:29;;;;;;;11.60;4.20;;;15.00;99.90;;;;;;4977229;28;20513;-86
2023/08/02 04:37:55;;;;;;;14.88;7.25;;;15.00;99.90;;;;;;4993229;28;20048;-86
2023/08/02 04:40:20;;;;;;;13.95;4.63;;;15.10;99.90;;;;;;4993983;28;20045;-86
2023/08/02 04:42:47;;;;;;;12.60;4.38;;;15.10;99.90;;;;;;4994286;28;20124;-86
2023/08/02 04:45:13;;;;;;;13.52;7.28;;;15.10;99.90;;;;;;4977551;28;20129;-86
2023/08/02 04:47:39;;;;;;;8.75;4.13;;;15.00;99.90;;;;;;4977153;28;20125;-86
2023/08/02 04:50:05;;;;;;;12.23;4.97;;;15.10;99.90;;;;;;4993791;28;20122;-86
2023/08/02 04:52:34;;;;;;;14.52;7.07;;;15.10;99.90;;;;;;4993615;28;20042;-86
2023/08/02 04:55:00;;;;;;;16.20;7.80;;;15.10;99.90;;;;;;4993543;28;20523;-86
2023/08/02 04:57:26;;;;;;;14.32;7.30;;;15.10;99.90;;;;;;4977106;28;20120;-86
2023/08/02 04:59:54;;;;;;;9.77;4.07;;;15.20;99.90;;;;;;4977955;28;20045;-85
2023/08/02 05:02:21;;;;;;;14.45;7.18;;;15.10;99.90;;;;;;4993255;28;20136;-86
2023/08/02 05:04:52;;;;;;;11.38;4.57;;;15.20;99.90;;;;;;4993709;28;20053;-87
2023/08/02 05:07:18;;;;;;;12.95;6.88;;;15.10;99.90;;;;;;4977542;28;20030;-87
2023/08/02 05:09:43;;;;;;;15.95;7.32;;;15.20;99.90;;;;;;4994153;28;20091;-86
2023/08/02 05:12:09;;;;;;;13.05;7.10;;;15.20;99.90;;;;;;4977249;28;20528;-86
2023/08/02 05:14:35;;;;;;;12.88;4.07;;;15.30;99.90;;;;;;4993437;28;20112;-86
2023/08/02 05:17:01;;;;;;;10.90;4.00;;;15.30;99.90;;;;;;4993042;28;20118;-86
2023/08/02 05:19:26;;;;;;;13.02;4.47;;;15.20;99.90;;;;;;5011129;28;20180;-86
2023/08/02 05:21:52;;;;;;;13.15;3.72;;;15.20;99.90;;;;;;4992995;28;20046;-86
2023/08/02 05:24:17;;;;;;;12.20;6.28;;;15.20;99.90;;;;;;4993506;28;20412;-86
2023/08/02 05:26:43;;;;;;;13.13;6.93;;;15.30;99.90;;;;;;5010859;28;20042;-86
2023/08/02 05:29:08;;;;;;;14.88;6.78;;;15.30;99.90;;;;;;4993139;28;20038;-86
2023/08/02 05:31:34;;;;;;;14.48;6.90;;;15.40;99.90;;;;;;4993085;28;20414;-86
2023/08/02 05:34:00;;;;;;;8.23;2.88;;;15.50;99.90;;;;;;4992562;28;20050;-86
2023/08/02 05:36:25;;;;;;;9.13;3.30;;;15.40;99.90;;;;;;4993101;28;20046;-86
2023/08/02 05:38:51;;;;;;;14.35;6.63;;;15.40;99.90;;;;;;4993332;28;20045;-86
2023/08/02 05:41:16;;;;;;;14.93;6.50;;;15.50;99.90;;;;;;4993176;28;20533;-86
2023/08/02 05:43:44;;;;;;;13.20;6.68;;;15.50;99.90;;;;;;4977463;28;20041;-86
2023/08/02 05:46:11;;;;;;;16.90;6.95;;;15.60;99.90;;;;;;4980191;28;20038;-86
2023/08/02 05:48:36;;;;;;;11.57;4.22;;;15.70;99.90;;;;;;4980622;28;20045;-86
2023/08/02 05:51:02;;;;;;;9.00;3.75;;;15.70;99.90;;;;;;4996841;28;20052;-86
2023/08/02 05:53:27;;;;;;;11.73;5.47;;;15.70;99.90;;;;;;4996793;28;20400;-86
2023/08/02 05:55:55;;;;;;;11.63;3.80;;;15.80;99.90;;;;;;4996451;28;20044;-86
2023/08/02 05:58:21;;;;;;;10.07;3.92;;;15.90;99.90;;;;;;4980117;28;20045;-86
2023/08/02 06:00:49;;;;;;;11.15;4.05;;;15.90;99.90;;;;;;4980546;28;20158;-87
2023/08/02 06:03:15;;;;;;;11.55;4.15;;;15.90;99.90;;;;;;4996733;28;20117;-86
2023/08/02 06:05:40;;;;;;;11.25;4.60;;;15.90;99.90;;;;;;4997375;28;20423;-87
2023/08/02 06:08:06;;;;;;;12.93;5.40;;;15.90;99.90;;;;;;4997271;28;20078;-87
2023/08/02 06:10:32;;;;;;;13.48;5.97;;;16.00;99.90;;;;;;4996607;28;20033;-86
2023/08/02 06:12:57;;;;;;;11.35;5.50;;;16.10;99.90;;;;;;4997103;28;20387;-86
2023/08/02 06:15:23;;;;;;;11.93;5.90;;;16.20;99.90;;;;;;4979656;28;20053;-86
2023/08/02 06:17:49;;;;;;;11.32;3.35;;;16.20;99.90;;;;;;4995435;28;20046;-86
2023/08/02 06:20:14;;;;;;;9.98;3.25;;;16.20;99.90;;;;;;4996278;28;20040;-87
2023/08/02 06:22:40;;;;;;;13.68;5.93;;;16.20;99.90;;;;;;4980233;28;20038;-87
2023/08/02 06:25:06;;;;;;;13.40;5.32;;;16.30;99.90;;;;;;4994867;28;20038;-86
2023/08/02 06:27:32;;;;;;;10.85;3.58;;;16.30;99.90;;;;;;4996365;28;20041;-87
2023/08/02 06:29:58;;;;;;;12.98;3.75;;;16.30;99.90;;;;;;4980115;28;20042;-87
2023/08/02 06:32:23;;;;;;;12.05;5.45;;;16.30;99.90;;;;;;4980378;28;20048;-87
2023/08/02 06:34:49;;;;;;;11.80;3.25;;;16.30;99.90;;;;;;4995813;28;20048;-87
2023/08/02 06:37:15;;;;;;;13.02;5.30;;;16.30;99.90;;;;;;4996253;28;20041;-87
2023/08/02 06:39:40;;;;;;;13.55;5.70;;;16.40;99.90;;;;;;4996056;28;20041;-87
2023/08/02 06:42:06;;;;;;;8.13;2.97;;;16.40;99.90;;;;;;4995779;28;20038;-87
2023/08/02 06:44:32;;;;;;;9.27;3.47;;;16.40;99.90;;;;;;4995799;28;20593;-88
2023/08/02 06:46:57;;;;;;;12.40;5.10;;;16.40;99.90;;;;;;4995743;28;20042;-88
2023/08/02 06:49:23;;;;;;;10.77;3.63;;;16.40;99.90;;;;;;4979323;28;20410;-88
2023/08/02 06:51:49;;;;;;;14.35;5.70;;;16.40;99.90;;;;;;4996435;28;20065;-87
2023/08/02 06:54:14;;;;;;;10.90;5.10;;;16.40;99.90;;;;;;4979436;28;20467;-87
2023/08/02 06:56:43;;;;;;;13.18;6.05;;;16.50;99.90;;;;;;4971417;28;20084;-87
2023/08/02 06:59:09;;;;;;;9.18;3.30;;;16.50;99.90;;;;;;4995990;28;20515;-87
2023/08/02 07:01:34;;;;;;;8.02;3.45;;;16.40;99.90;;;;;;4976066;28;20065;-87
2023/08/02 07:04:03;;;;;;;11.65;5.35;;;16.40;99.90;;;;;;4976660;28;20105;-87
2023/08/02 07:06:29;;;;;;;8.77;3.03;;;16.50;99.90;;;;;;4976342;28;20038;-87
2023/08/02 07:08:55;;;;;;;13.65;4.07;;;16.40;99.90;;;;;;4976513;28;20038;-86
2023/08/02 07:11:21;;;;;;;11.35;3.78;;;16.40;99.90;;;;;;4976285;28;20047;-87
2023/08/02 07:13:47;;;;;;;15.55;5.15;;;16.40;99.90;;;;;;4974916;28;20030;-87
2023/08/02 07:16:12;;;;;;;9.85;3.33;;;16.50;99.90;;;;;;4974852;28;20517;-87
2023/08/02 07:18:38;;;;;;;7.10;3.08;;;16.50;99.90;;;;;;4975133;28;20042;-87
2023/08/02 07:21:05;;;;;;;13.82;4.63;;;16.50;99.90;;;;;;4975909;28;20074;-87
2023/08/02 07:23:31;;;;;;;13.70;4.47;;;16.50;99.90;;;;;;4976546;28;20042;-87
2023/08/02 07:25:56;;;;;;;10.95;4.50;;;16.60;99.90;;;;;;4976506;28;20038;-87
2023/08/02 07:28:22;;;;;;;11.75;4.90;;;16.60;99.90;;;;;;4960114;28;20038;-87
2023/08/02 07:30:47;;;;;;;8.90;2.67;;;16.60;99.90;;;;;;4975920;28;20046;-87
2023/08/02 07:33:13;;;;;;;9.80;2.63;;;16.60;99.90;;;;;;4976602;28;20046;-87
2023/08/02 07:35:39;;;;;;;12.90;4.90;;;16.50;99.90;;;;;;4976177;28;20050;-87
2023/08/02 07:38:04;;;;;;;12.48;4.93;;;16.60;99.90;;;;;;4959317;28;20089;-87
2023/08/02 07:40:30;;;;;;;8.98;3.25;;;16.60;99.90;;;;;;4959502;28;20478;-86
2023/08/02 07:42:56;;;;;;;12.68;4.53;;;16.50;99.90;;;;;;4959413;28;20038;-88
2023/08/02 07:45:21;;;;;;;10.35;4.72;;;16.50;99.90;;;;;;4975496;28;20038;-87
2023/08/02 07:47:47;;;;;;;8.93;3.08;;;16.50;99.90;;;;;;4958876;28;20050;-87
2023/08/02 07:50:13;;;;;;;11.40;4.20;;;16.50;99.90;;;;;;4975803;28;20133;-87
2023/08/02 07:52:38;;;;;;;9.63;4.30;;;16.40;99.90;;;;;;4975356;28;20080;-87
2023/08/02 07:55:04;;;;;;;8.45;3.22;;;16.50;99.90;;;;;;4975497;28;20096;-87
2023/08/02 07:57:34;;;;;;;10.73;4.95;;;16.40;99.90;;;;;;4974668;28;20084;-86
2023/08/02 08:00:01;;;;;;;10.85;3.70;;;16.40;99.90;;;;;;4974875;28;20393;-87
2023/08/02 08:02:27;;;;;;;11.95;3.50;;;16.40;99.90;;;;;;4975247;28;20046;-86
2023/08/02 08:04:54;;;;;;;8.02;2.85;;;16.40;99.90;;;;;;4958851;28;20038;-86
2023/08/02 08:07:20;;;;;;;12.57;5.22;;;16.30;99.90;;;;;;4959130;28;20049;-86
2023/08/02 08:09:45;;;;;;;11.15;5.18;;;16.30;99.90;;;;;;4959416;28;20053;-86
2023/08/02 08:12:11;;;;;;;13.18;5.43;;;16.30;99.90;;;;;;4974438;28;20504;-86
2023/08/02 08:14:37;;;;;;;9.43;3.38;;;16.30;99.90;;;;;;4975236;28;20126;-86
2023/08/02 08:17:03;;;;;;;9.20;3.22;;;16.30;99.90;;;;;;4974740;28;20450;-86
2023/08/02 08:19:31;;;;;;;10.95;3.40;;;16.30;99.90;;;;;;4975139;28;20419;-86
2023/08/02 08:21:57;;;;;;;12.00;3.72;;;16.30;99.90;;;;;;4975211;28;20050;-86
2023/08/02 08:24:22;;;;;;;14.45;6.57;;;16.30;99.90;;;;;;4975531;28;20042;-86
2023/08/02 08:26:48;;;;;;;11.15;5.22;;;16.30;99.90;;;;;;4983001;28;20030;-85
2023/08/02 08:29:13;;;;;;;12.02;5.80;;;16.50;99.90;;;;;;4984919;28;20045;-86
2023/08/02 08:31:39;;;;;;;12.27;5.57;;;16.50;99.90;;;;;;4983441;28;20046;-86
2023/08/02 08:34:05;;;;;;;12.85;5.53;;;16.60;99.90;;;;;;4985311;28;20033;-86
2023/08/02 08:36:30;;;;;;;13.80;6.25;;;16.60;99.90;;;;;;4983439;28;20042;-86
2023/08/02 08:38:56;;;;;;;14.55;5.88;;;16.60;99.90;;;;;;4964842;28;20050;-87
2023/08/02 08:41:22;;;;;;;13.77;5.82;;;16.60;99.90;;;;;;4975014;28;20499;-87
2023/08/02 08:43:48;;;;;;;12.05;4.10;;;16.70;99.90;;;;;;4999258;28;20387;-87
2023/08/02 08:46:14;;;;;;;11.07;6.22;;;16.70;99.90;;;;;;4967991;28;20384;-86
2023/08/02 08:48:40;;;;;;;11.80;6.45;;;16.70;99.90;;;;;;4972588;28;20037;-86
2023/08/02 08:51:08;;;;;;;11.02;5.68;;;16.80;99.90;;;;;;4987805;28;20037;-86
2023/08/02 08:53:35;;;;;;;12.15;6.18;;;16.90;99.90;;;;;;4957672;28;20035;-86
2023/08/02 08:56:02;;;;;;;10.20;3.45;;;16.90;99.90;;;;;;4975956;28;20499;-85
2023/08/02 08:58:28;;;;;;;12.70;6.13;;;16.80;99.90;;;;;;4957476;28;20046;-86
2023/08/02 09:00:56;;;;;;;7.50;3.28;;;16.80;99.90;;;;;;4958560;28;20449;-86
2023/08/02 09:03:23;;;;;;;10.98;5.70;;;16.80;99.90;;;;;;4974045;28;20042;-86
2023/08/02 09:05:49;;;;;;;13.60;6.28;;;16.80;99.90;;;;;;4973982;28;20045;-86
2023/08/02 09:08:15;;;;;;;12.20;5.88;;;16.80;99.90;;;;;;4971457;28;20126;-86
2023/08/02 09:10:41;;;;;;;12.27;6.50;;;16.80;99.90;;;;;;4971619;28;20053;-86
2023/08/02 09:13:20;;;;;;;11.90;6.20;;;16.80;99.90;;;;;;4974405;28;20038;-86
2023/08/02 09:15:50;;;;;;;15.20;6.80;;;16.80;99.90;;;;;;4957817;28;20035;-86
2023/08/02 09:18:16;;;;;;;10.48;4.35;;;16.80;99.90;;;;;;4972896;28;20057;-85
2023/08/02 09:20:52;;;;;;;13.65;6.68;;;16.80;99.90;;;;;;4957985;28;20408;-86
2023/08/02 09:23:17;;;;;;;11.77;6.70;;;16.90;99.90;;;;;;4974123;28;20486;-86
2023/08/02 09:25:43;;;;;;;11.98;6.82;;;16.90;99.90;;;;;;4990122;28;20520;-86
2023/08/02 09:28:11;;;;;;;11.05;6.50;;;16.90;99.90;;;;;;4955318;28;20566;-86
2023/08/02 09:30:37;;;;;;;9.95;4.28;;;16.90;99.90;;;;;;4971431;28;20039;-87
2023/08/02 09:33:08;;;;;;;9.20;3.65;;;16.90;99.90;;;;;;4955157;28;20069;-86
2023/08/02 09:35:47;;;;;;;11.73;5.78;;;16.80;99.90;;;;;;4954840;28;20035;-86
2023/08/02 09:38:13;;;;;;;8.50;3.78;;;16.80;99.90;;;;;;4970670;28;20093;-86
2023/08/02 09:40:40;;;;;;;10.55;5.93;;;16.80;99.90;;;;;;4973896;28;20042;-86
2023/08/02 09:43:09;;;;;;;10.35;6.32;;;16.80;99.90;;;;;;4967173;28;20677;-86
2023/08/02 09:45:35;;;;;;;10.98;5.93;;;16.90;99.90;;;;;;4965166;28;20061;-86
2023/08/02 09:48:02;;;;;;;9.80;5.97;;;16.90;99.90;;;;;;4975219;28;20046;-85
2023/08/02 09:50:28;;;;;;;10.82;4.10;;;17.00;99.90;;;;;;4965409;28;20117;-86
2023/08/02 09:52:54;;;;;;;10.23;5.32;;;16.90;99.90;;;;;;4980889;28;20372;-86
2023/08/02 09:55:20;;;;;;;9.32;5.13;;;16.90;99.90;;;;;;4983270;28;20030;-86
2023/08/02 09:57:48;;;;;;;8.55;5.00;;;17.00;99.90;;;;;;4966148;28;20038;-86
2023/08/02 10:00:15;;;;;;;10.27;5.22;;;17.00;99.90;;;;;;4985390;28;20037;-86
2023/08/02 10:02:41;;;;;;;8.60;4.63;;;17.00;99.90;;;;;;4977540;28;20107;-87
2023/08/02 10:05:12;;;;;;;8.30;3.30;;;17.10;99.90;;;;;;4993493;28;20034;-87
2023/08/02 10:07:56;;;;;;;8.27;4.30;;;17.00;99.90;;;;;;4977199;28;20044;-87
2023/08/02 10:10:31;;;;;;;9.73;4.63;;;17.00;99.90;;;;;;5010115;28;20042;-87
2023/08/02 10:13:15;;;;;;;8.88;4.78;;;17.00;99.90;;;;;;4977307;28;20037;-87
2023/08/02 10:15:41;;;;;;;10.43;4.53;;;17.10;99.90;;;;;;4993242;28;20069;-86
2023/08/02 10:18:08;;;;;;;6.63;2.67;;;17.10;99.90;;;;;;4993073;28;20084;-87
2023/08/02 10:20:34;;;;;;;7.97;4.20;;;17.10;99.90;;;;;;4991567;28;20467;-86
2023/08/02 10:23:04;;;;;;;8.18;3.70;;;17.10;99.90;;;;;;4964989;28;20682;-87
2023/08/02 10:25:33;;;;;;;7.30;3.88;;;17.10;99.90;;;;;;4957950;28;20085;-87
2023/08/02 10:27:59;;;;;;;5.72;2.20;;;17.20;99.90;;;;;;4957007;28;20042;-87
2023/08/02 10:30:26;;;;;;;6.72;3.45;;;17.20;99.90;;;;;;4985463;28;20376;-87
2023/08/02 10:33:13;;;;;;;6.15;2.90;;;17.30;99.90;;;;;;4969316;28;20049;-87
2023/08/02 10:35:58;;;;;;;6.35;2.80;;;17.30;99.90;;;;;;4987719;28;20105;-86
2023/08/02 10:38:37;;;;;;;4.88;1.95;;;17.30;99.90;;;;;;4985087;28;20070;-87
2023/08/02 10:41:09;;;;;;;6.53;2.63;;;17.30;99.90;;;;;;5018113;28;20034;-86
2023/08/02 10:43:55;;;;;;;6.03;2.65;;;17.30;99.90;;;;;;4985303;28;20104;-87
2023/08/02 10:46:22;;;;;;;6.35;2.60;;;17.40;99.90;;;;;;4993493;28;20518;-87
2023/08/02 10:48:48;;;;;;;10.50;4.93;;;17.40;99.90;;;;;;4980304;28;20518;-87
2023/08/02 10:51:33;;;;;;;5.00;2.00;;;17.50;99.90;;;;;;4980725;28;20084;-85
2023/08/02 10:54:16;;;;;;;6.30;2.55;;;17.50;99.90;;;;;;4995864;28;20045;-86
2023/08/02 10:57:09;;;;;;;6.38;2.67;;;17.60;99.90;;;;;;4995868;28;20042;-86
2023/08/02 10:59:34;;;;;;;5.68;2.30;;;17.60;99.90;;;;;;4993339;28;20056;-86
2023/08/02 11:02:09;;;;;;;4.82;2.30;;;17.70;99.90;;;;;;4995231;28;20046;-86
2023/08/02 11:04:37;;;;;;;4.32;1.95;;;17.70;99.90;;;;;;4972945;28;20053;-86
2023/08/02 11:07:15;;;;;;;3.97;1.90;;;17.70;99.90;;;;;;4985849;28;20068;-87
2023/08/02 11:09:41;;;;;;;4.20;1.83;;;17.80;99.90;;;;;;4985820;28;20556;-87
2023/08/02 11:12:15;;;;;;;6.15;3.00;;;17.80;99.90;;;;;;5000655;28;20065;-86
2023/08/02 11:14:50;;;;;;;4.13;1.48;;;17.80;99.90;;;;;;4968453;28;20088;-86
2023/08/02 11:17:18;;;;;;;4.82;1.95;;;17.80;99.90;;;;;;5001913;28;20065;-86
2023/08/02 11:19:48;;;;;;;4.28;2.20;;;17.80;99.90;;;;;;4983944;28;20042;-86
2023/08/02 11:22:15;;;;;;;6.95;3.28;;;17.90;99.90;;;;;;4984692;28;20037;-86
2023/08/02 11:24:45;;;;;;;6.28;3.00;;;17.90;99.90;;;;;;4969498;28;20038;-86
2023/08/02 11:27:18;;;;;;;5.55;2.63;;;18.00;99.90;;;;;;5017278;28;20042;-86
2023/08/02 11:29:57;;;;;;;3.67;1.73;;;18.10;99.90;;;;;;4968272;28;20089;-86
2023/08/02 11:32:22;;;;;;;4.47;2.00;;;18.00;99.90;;;;;;4984040;28;20046;-86
2023/08/02 11:34:48;;;;;;;3.75;1.90;;;18.00;99.90;;;;;;4970259;28;20425;-86
2023/08/02 11:37:15;;;;;;;4.85;2.20;;;18.00;99.90;;;;;;4968973;28;20084;-86
2023/08/02 11:39:53;;;;;;;5.88;2.53;;;18.00;99.90;;;;;;4983983;28;20092;-86
2023/08/02 11:42:19;;;;;;;3.42;2.00;;;18.20;99.90;;;;;;4985485;28;20465;-86
2023/08/02 11:44:45;;;;;;;5.18;2.40;;;18.20;99.90;;;;;;4986381;28;20053;-87
2023/08/02 11:47:11;;;;;;;5.05;2.47;;;18.30;99.90;;;;;;4967983;28;20491;-87
2023/08/02 11:49:56;;;;;;;5.97;2.70;;;18.40;99.90;;;;;;4977182;28;20081;-87
2023/08/02 11:52:39;;;;;;;5.55;2.80;;;18.60;99.90;;;;;;4975817;28;20050;-87
2023/08/02 11:55:05;;;;;;;5.72;2.92;;;18.70;99.90;;;;;;4975572;28;20078;-88
2023/08/02 11:57:31;;;;;;;5.75;2.80;;;18.80;99.90;;;;;;4959179;28;20049;-87
2023/08/02 11:59:59;;;;;;;5.82;3.00;;;18.90;99.90;;;;;;4975613;28;20038;-87
2023/08/02 12:02:29;;;;;;;6.63;3.67;;;19.00;99.90;;;;;;4975783;28;20047;-87
2023/08/02 12:04:56;;;;;;;6.55;3.05;;;19.10;99.90;;;;;;4959155;28;20034;-87
2023/08/02 12:07:26;;;;;;;5.97;3.40;;;19.10;99.90;;;;;;4959085;28;20084;-87
2023/08/02 12:09:52;;;;;;;6.40;3.30;;;19.30;99.90;;;;;;4975817;28;20048;-87
2023/08/02 12:12:17;;;;;;;5.78;3.70;;;19.40;99.90;;;;;;4959605;28;20042;-87
2023/08/02 12:14:43;;;;;;;6.60;3.70;;;19.60;99.90;;;;;;4975109;28;20042;-88
2023/08/02 12:17:21;;;;;;;6.97;3.42;;;19.60;99.90;;;;;;4974880;28;20042;-87
2023/08/02 12:19:47;;;;;;;7.22;4.10;;;19.80;99.90;;;;;;4958514;28;20046;-87
2023/08/02 12:22:13;;;;;;;7.95;4.05;;;19.90;99.90;;;;;;4960158;28;20049;-87
2023/08/02 12:24:39;;;;;;;6.90;4.18;;;20.20;99.90;;;;;;4959402;28;20691;-87
2023/08/02 12:27:18;;;;;;;7.45;4.05;;;20.30;99.90;;;;;;4958800;28;20050;-88
2023/08/02 12:29:46;;;;;;;6.88;4.10;;;20.60;99.90;;;;;;4975010;28;20074;-88
2023/08/02 12:32:25;;;;;;;6.80;3.80;;;20.70;99.90;;;;;;4975037;28;20129;-87
2023/08/02 12:34:51;;;;;;;6.03;3.40;;;20.80;99.90;;;;;;4975229;28;20483;-87
2023/08/02 12:37:17;;;;;;;5.95;3.42;;;20.80;99.90;;;;;;4974769;28;20038;-87
2023/08/02 12:39:42;;;;;;;6.88;3.63;;;20.70;99.90;;;;;;4974953;28;20046;-88
2023/08/02 12:42:08;;;;;;;7.38;4.00;;;20.70;99.90;;;;;;4958826;28;20057;-87